Time;durP1;ratioP1;P1;durP2;ratioP2;P2;SDS_P1;SDS_P2;PMS_P1;PMS_P2;Temp;Humidity;BMP_temperature;BMP_pressure;BME280_temperature;BME280_humidity;BME280_pressure;Samples;Min_cycle;Max_cycle;Signal;HPM_P1;HPM_P2
2022/08/24 00:01:09;;;;;;;13.23;5.93;;;22.90;99.90;;;;;;4995793;28;20222;-70
2022/08/24 00:03:37;;;;;;;10.93;5.50;;;22.80;99.90;;;;;;4995617;28;20712;-70
2022/08/24 00:06:05;;;;;;;8.13;5.27;;;22.80;99.90;;;;;;4996002;28;20302;-70
2022/08/24 00:08:33;;;;;;;9.90;5.50;;;22.70;99.90;;;;;;4994572;28;20450;-72
2022/08/24 00:11:00;;;;;;;16.80;5.70;;;22.70;99.90;;;;;;4995012;28;20300;-70
2022/08/24 00:13:28;;;;;;;12.33;5.70;;;22.70;99.90;;;;;;4993814;28;20318;-71
2022/08/24 00:15:56;;;;;;;13.20;5.83;;;22.60;99.90;;;;;;4999281;28;20294;-70
2022/08/24 00:18:23;;;;;;;8.03;5.60;;;22.60;99.90;;;;;;4999841;28;20259;-71
2022/08/24 00:20:50;;;;;;;8.83;5.03;;;22.60;99.90;;;;;;4995664;28;20203;-72
2022/08/24 00:23:17;;;;;;;9.57;5.70;;;22.50;99.90;;;;;;5010091;28;20681;-70
2022/08/24 00:25:44;;;;;;;10.60;5.30;;;22.40;99.90;;;;;;5014710;28;20588;-70
2022/08/24 00:28:12;;;;;;;8.97;5.30;;;22.40;99.90;;;;;;5015535;28;20674;-71
2022/08/24 00:30:40;;;;;;;14.90;5.87;;;22.40;99.90;;;;;;5005246;28;20733;-72
2022/08/24 00:33:07;;;;;;;10.37;5.47;;;22.30;99.90;;;;;;4998468;28;20235;-71
2022/08/24 00:35:34;;;;;;;9.27;5.67;;;22.30;99.90;;;;;;5009071;28;20618;-70
2022/08/24 00:38:01;;;;;;;16.27;5.33;;;22.20;99.90;;;;;;4995068;28;20215;-72
2022/08/24 00:40:32;;;;;;;10.53;5.27;;;22.20;99.90;;;;;;4996165;28;20299;-71
2022/08/24 00:43:03;;;;;;;10.43;5.20;;;22.20;99.90;;;;;;4995256;28;20635;-71
2022/08/24 00:45:31;;;;;;;14.07;5.70;;;22.10;99.90;;;;;;4995162;28;20683;-70
2022/08/24 00:48:02;;;;;;;10.97;5.37;;;22.10;99.90;;;;;;4997221;28;20291;-70
2022/08/24 00:50:34;;;;;;;12.20;7.53;;;22.10;99.90;;;;;;4986173;28;20203;-71
2022/08/24 00:53:06;;;;;;;10.17;5.60;;;22.00;99.90;;;;;;4994307;28;20282;-71
2022/08/24 00:55:36;;;;;;;13.30;5.27;;;22.00;99.90;;;;;;4992927;28;20206;-71
2022/08/24 00:58:07;;;;;;;9.40;5.40;;;21.90;99.90;;;;;;4991236;28;20207;-70
2022/08/24 01:00:41;;;;;;;7.93;5.30;;;21.90;99.90;;;;;;4994966;28;20286;-71
2022/08/24 01:03:10;;;;;;;10.93;5.70;;;21.80;99.90;;;;;;4994650;28;20278;-71
2022/08/24 01:05:38;;;;;;;9.50;5.30;;;21.80;99.90;;;;;;4993876;28;20290;-71
2022/08/24 01:08:09;;;;;;;8.63;5.33;;;21.80;99.90;;;;;;4987724;28;20303;-72
2022/08/24 01:10:42;;;;;;;11.63;5.20;;;21.70;99.90;;;;;;4992615;28;20208;-71
2022/08/24 01:13:12;;;;;;;9.70;5.13;;;21.70;99.90;;;;;;4994714;28;20315;-71
2022/08/24 01:15:42;;;;;;;14.13;5.63;;;21.60;99.90;;;;;;4993567;28;20594;-71
2022/08/24 01:21:11;;;;;;;10.63;5.70;;;21.60;99.90;;;;;;4993872;28;20194;-69
2022/08/24 01:23:43;;;;;;;8.90;5.30;;;21.50;99.90;;;;;;4993733;28;20226;-70
2022/08/24 01:26:13;;;;;;;10.97;5.27;;;21.50;99.90;;;;;;4994087;28;20225;-71
2022/08/24 01:28:42;;;;;;;9.17;4.90;;;21.40;99.90;;;;;;4991564;28;20294;-71
2022/08/24 01:31:09;;;;;;;9.80;5.33;;;21.40;99.90;;;;;;4993860;28;20286;-72
2022/08/24 01:33:37;;;;;;;9.63;5.30;;;21.40;99.90;;;;;;4993887;28;20725;-70
2022/08/24 01:36:12;;;;;;;10.07;4.97;;;21.40;99.90;;;;;;4994199;28;20658;-71
2022/08/24 01:38:41;;;;;;;12.07;5.13;;;21.30;99.90;;;;;;4992859;28;20328;-70
2022/08/24 01:41:08;;;;;;;11.50;5.10;;;21.30;99.90;;;;;;4994074;28;20290;-72
2022/08/24 01:43:35;;;;;;;11.67;5.27;;;21.20;99.90;;;;;;4993544;28;20249;-71
2022/08/24 01:46:02;;;;;;;13.13;5.00;;;21.20;99.90;;;;;;4993563;28;20263;-72
2022/08/24 01:48:30;;;;;;;14.67;5.80;;;21.10;99.90;;;;;;4992976;28;20655;-70
2022/08/24 01:50:57;;;;;;;10.90;5.20;;;21.10;99.90;;;;;;4993314;28;20208;-69
2022/08/24 01:53:24;;;;;;;8.40;5.33;;;21.10;99.90;;;;;;4992773;28;20298;-71
2022/08/24 01:55:52;;;;;;;9.73;5.10;;;21.10;99.90;;;;;;4993965;28;20210;-71
2022/08/24 01:58:19;;;;;;;9.97;5.50;;;21.10;99.90;;;;;;4994395;28;20619;-70
2022/08/24 02:00:46;;;;;;;9.87;5.50;;;21.00;99.90;;;;;;4992645;28;20616;-70
2022/08/24 02:03:13;;;;;;;14.80;5.50;;;21.00;99.90;;;;;;4992844;28;20751;-69
2022/08/24 02:05:40;;;;;;;6.70;5.10;;;21.00;99.90;;;;;;4993235;28;20228;-70
2022/08/24 02:08:07;;;;;;;6.80;4.80;;;21.00;99.90;;;;;;4993626;28;20205;-70
2022/08/24 02:10:34;;;;;;;11.40;4.90;;;21.00;99.90;;;;;;4990767;28;20212;-69
2022/08/24 02:13:03;;;;;;;12.97;5.20;;;20.90;99.90;;;;;;4993572;28;20767;-71
2022/08/24 02:15:32;;;;;;;6.57;4.70;;;21.00;99.90;;;;;;4993266;28;20251;-71
2022/08/24 02:18:00;;;;;;;13.87;5.40;;;20.90;99.90;;;;;;4993525;28;20576;-71
2022/08/24 02:20:29;;;;;;;11.03;5.47;;;20.90;99.90;;;;;;4992160;28;20210;-71
2022/08/24 02:22:56;;;;;;;10.57;5.00;;;20.90;99.90;;;;;;4993037;28;20207;-70
2022/08/24 02:25:25;;;;;;;11.47;5.33;;;20.90;99.90;;;;;;4992709;28;20779;-70
2022/08/24 02:27:52;;;;;;;10.13;5.20;;;20.80;99.90;;;;;;4993136;28;20679;-71
2022/08/24 02:30:20;;;;;;;8.03;5.03;;;20.80;99.90;;;;;;4993339;28;20262;-70
2022/08/24 02:32:47;;;;;;;13.03;5.40;;;20.80;99.90;;;;;;4992514;28;20721;-71
2022/08/24 02:35:14;;;;;;;9.73;5.23;;;20.70;99.90;;;;;;4993007;28;20304;-71
2022/08/24 02:37:41;;;;;;;9.00;5.23;;;20.80;99.90;;;;;;4992540;28;20220;-71
2022/08/24 02:40:10;;;;;;;8.50;5.17;;;20.80;99.90;;;;;;4993272;28;20805;-71
2022/08/24 02:42:37;;;;;;;11.77;5.10;;;20.70;99.90;;;;;;4990906;28;20296;-70
2022/08/24 02:45:05;;;;;;;10.80;5.80;;;20.70;99.90;;;;;;4993026;28;20227;-71
2022/08/24 02:47:34;;;;;;;10.30;5.73;;;20.80;99.90;;;;;;4992997;28;20266;-71
2022/08/24 02:50:01;;;;;;;9.83;5.73;;;20.70;99.90;;;;;;4992980;28;20644;-69
2022/08/24 02:52:28;;;;;;;12.37;6.00;;;20.70;99.90;;;;;;4990641;28;20244;-70
2022/08/24 02:54:55;;;;;;;11.30;5.70;;;20.70;99.90;;;;;;4992810;28;20204;-69
2022/08/24 02:57:23;;;;;;;8.20;5.43;;;20.70;99.90;;;;;;4990682;28;20218;-70
2022/08/24 02:59:49;;;;;;;10.63;6.03;;;20.70;99.90;;;;;;4992498;28;20283;-70
2022/08/24 03:02:17;;;;;;;8.10;4.97;;;20.60;99.90;;;;;;4991541;28;20274;-70
2022/08/24 03:04:46;;;;;;;9.87;5.20;;;20.60;99.90;;;;;;4993019;28;20671;-70
2022/08/24 03:07:13;;;;;;;8.13;5.67;;;20.70;99.90;;;;;;4993875;28;20213;-70
2022/08/24 03:09:40;;;;;;;9.83;5.60;;;20.60;99.90;;;;;;4993145;28;20623;-70
2022/08/24 03:12:07;;;;;;;17.80;5.90;;;20.60;99.90;;;;;;4992808;28;20627;-70
2022/08/24 03:14:34;;;;;;;9.30;5.00;;;20.70;99.90;;;;;;4991927;28;20220;-70
2022/08/24 03:17:01;;;;;;;10.67;5.30;;;20.60;99.90;;;;;;4993215;28;20302;-70
2022/08/24 03:19:28;;;;;;;12.13;5.57;;;20.60;99.90;;;;;;4992887;28;20210;-70
2022/08/24 03:21:56;;;;;;;8.03;5.13;;;20.60;99.90;;;;;;4992961;28;20293;-71
2022/08/24 03:24:23;;;;;;;7.83;5.23;;;20.60;99.90;;;;;;4991305;28;20280;-70
2022/08/24 03:26:50;;;;;;;8.87;4.83;;;20.60;99.90;;;;;;4992801;28;20315;-71
2022/08/24 03:29:17;;;;;;;12.87;5.30;;;20.70;99.90;;;;;;4991449;28;20240;-72
2022/08/24 03:31:44;;;;;;;13.17;6.67;;;20.60;99.90;;;;;;4995009;28;20295;-71
2022/08/24 03:34:12;;;;;;;10.07;6.57;;;20.70;99.90;;;;;;4991121;28;20314;-71
2022/08/24 03:36:39;;;;;;;16.23;5.77;;;20.70;99.90;;;;;;4994634;28;20210;-70
2022/08/24 03:39:07;;;;;;;10.10;5.40;;;20.70;99.90;;;;;;4995442;28;20326;-71
2022/08/24 03:41:34;;;;;;;7.93;4.60;;;20.70;99.90;;;;;;4995460;28;20299;-72
2022/08/24 03:44:01;;;;;;;11.43;5.00;;;20.80;99.90;;;;;;4989037;28;20629;-71
2022/08/24 03:46:29;;;;;;;10.43;5.30;;;20.80;99.90;;;;;;4994192;28;20235;-71
2022/08/24 03:48:57;;;;;;;9.90;4.77;;;20.80;99.90;;;;;;4995456;28;20201;-71
2022/08/24 03:51:26;;;;;;;11.13;4.93;;;20.80;99.90;;;;;;4991028;28;20230;-70
2022/08/24 03:53:54;;;;;;;11.13;5.20;;;20.80;99.90;;;;;;4995952;28;20738;-71
2022/08/24 03:56:23;;;;;;;10.67;6.03;;;20.90;99.90;;;;;;4995567;28;20310;-70
2022/08/24 03:58:50;;;;;;;8.83;5.60;;;20.90;99.90;;;;;;4995234;28;20231;-71
2022/08/24 04:01:17;;;;;;;6.23;4.83;;;20.90;99.90;;;;;;4993485;28;20294;-72
2022/08/24 04:03:46;;;;;;;11.20;5.10;;;21.00;99.90;;;;;;4992924;28;20289;-72
2022/08/24 04:06:15;;;;;;;9.63;5.23;;;21.00;99.90;;;;;;5005802;28;20706;-71
2022/08/24 04:08:43;;;;;;;10.70;5.23;;;21.00;99.90;;;;;;5015363;28;20207;-72
2022/08/24 04:11:11;;;;;;;10.73;5.40;;;21.00;99.90;;;;;;4996078;28;20288;-71
2022/08/24 04:13:39;;;;;;;10.53;5.00;;;21.10;99.90;;;;;;4995188;28;20255;-72
2022/08/24 04:16:07;;;;;;;12.23;5.30;;;21.10;99.90;;;;;;4994421;28;20297;-71
2022/08/24 04:18:34;;;;;;;10.17;4.60;;;21.10;99.90;;;;;;4997331;28;20707;-72
2022/08/24 04:21:02;;;;;;;10.00;4.50;;;21.10;99.90;;;;;;4995357;28;20306;-72
2022/08/24 04:23:29;;;;;;;10.47;4.97;;;21.10;99.90;;;;;;4994625;28;20294;-72
2022/08/24 04:26:01;;;;;;;11.37;4.73;;;21.10;99.90;;;;;;4995272;28;20231;-71
2022/08/24 04:28:28;;;;;;;8.27;4.93;;;21.20;99.90;;;;;;4994328;28;20248;-72
2022/08/24 04:30:56;;;;;;;10.60;4.63;;;21.20;99.90;;;;;;4993270;28;20229;-71
2022/08/24 04:33:24;;;;;;;7.77;4.13;;;21.20;99.90;;;;;;4994920;28;20642;-72
2022/08/24 04:35:51;;;;;;;9.27;4.57;;;21.30;99.90;;;;;;4993693;28;20723;-72
2022/08/24 04:38:19;;;;;;;10.57;5.47;;;21.30;99.90;;;;;;4994488;28;20286;-72
2022/08/24 04:40:47;;;;;;;7.80;4.60;;;21.30;99.90;;;;;;4994229;28;20720;-73
2022/08/24 04:43:15;;;;;;;7.77;4.90;;;21.30;99.90;;;;;;4994029;28;20216;-72
2022/08/24 04:45:44;;;;;;;6.93;4.20;;;21.40;99.90;;;;;;4995244;28;20314;-72
2022/08/24 04:48:14;;;;;;;9.30;4.20;;;21.40;99.90;;;;;;4995378;28;20299;-72
2022/08/24 04:50:42;;;;;;;7.00;3.90;;;21.40;99.90;;;;;;4994761;28;20647;-72
2022/08/24 04:53:10;;;;;;;9.13;4.33;;;21.50;99.90;;;;;;4994962;28;20210;-72
2022/08/24 04:55:44;;;;;;;9.60;4.60;;;21.50;99.90;;;;;;4994788;28;20844;-72
2022/08/24 04:58:11;;;;;;;11.63;4.20;;;21.60;99.90;;;;;;4993965;28;20211;-71
2022/08/24 05:00:38;;;;;;;13.67;4.67;;;21.60;99.90;;;;;;4993551;28;20211;-71
2022/08/24 05:03:06;;;;;;;9.20;4.30;;;21.70;99.90;;;;;;4993827;28;20294;-71
2022/08/24 05:05:35;;;;;;;6.57;3.90;;;21.70;99.90;;;;;;4994352;28;20320;-70
2022/08/24 05:08:02;;;;;;;5.67;3.50;;;21.70;99.90;;;;;;4994066;28;20670;-70
2022/08/24 05:10:29;;;;;;;7.70;4.10;;;21.80;99.90;;;;;;4994393;28;20332;-72
2022/08/24 05:12:56;;;;;;;11.07;4.67;;;21.90;99.90;;;;;;4992948;28;20297;-71
2022/08/24 05:15:23;;;;;;;9.60;4.43;;;21.90;99.90;;;;;;4994229;28;20293;-71
2022/08/24 05:17:50;;;;;;;10.43;4.40;;;22.00;99.90;;;;;;4994145;28;20215;-71
2022/08/24 05:20:17;;;;;;;7.23;3.83;;;22.00;99.70;;;;;;4992750;28;20216;-70
2022/08/24 05:22:46;;;;;;;11.57;4.50;;;22.00;99.60;;;;;;4993338;28;20204;-70
2022/08/24 05:25:13;;;;;;;9.80;4.17;;;22.10;99.90;;;;;;4992460;28;20676;-72
2022/08/24 05:27:40;;;;;;;7.13;4.10;;;22.10;99.90;;;;;;4992422;28;20558;-71
2022/08/24 05:30:09;;;;;;;11.33;4.87;;;22.20;99.60;;;;;;4993630;28;20298;-71
2022/08/24 05:32:36;;;;;;;13.33;6.77;;;22.20;99.30;;;;;;4994148;28;20670;-71
2022/08/24 05:35:04;;;;;;;11.23;4.27;;;22.30;99.50;;;;;;4993875;28;20207;-71
2022/08/24 05:37:31;;;;;;;13.13;4.33;;;22.40;99.30;;;;;;4993048;28;20303;-73
2022/08/24 05:40:01;;;;;;;10.57;4.27;;;22.40;99.10;;;;;;4992597;28;20241;-71
2022/08/24 05:42:28;;;;;;;7.20;3.90;;;22.50;99.00;;;;;;4994052;28;20267;-71
2022/08/24 05:44:55;;;;;;;7.23;4.20;;;22.50;98.90;;;;;;4992998;28;20297;-70
2022/08/24 05:47:22;;;;;;;10.73;4.30;;;22.60;99.20;;;;;;4992570;28;20227;-71
2022/08/24 05:49:51;;;;;;;9.83;4.40;;;22.70;99.30;;;;;;4991430;28;20295;-70
2022/08/24 05:52:18;;;;;;;7.53;3.97;;;22.70;99.00;;;;;;4993369;28;20207;-72
2022/08/24 05:54:46;;;;;;;17.00;4.70;;;22.80;98.80;;;;;;4992762;28;20254;-70
2022/08/24 05:57:14;;;;;;;20.83;4.83;;;22.90;98.40;;;;;;4993105;28;20292;-71
2022/08/24 05:59:41;;;;;;;19.40;4.50;;;22.90;98.30;;;;;;4994110;28;20205;-73
2022/08/24 06:02:08;;;;;;;7.93;3.67;;;22.90;98.10;;;;;;4992276;28;20261;-72
2022/08/24 06:04:36;;;;;;;9.17;4.00;;;23.00;98.30;;;;;;4989227;28;20294;-71
2022/08/24 06:07:04;;;;;;;8.77;3.87;;;23.00;98.30;;;;;;4992886;28;20298;-72
2022/08/24 06:09:31;;;;;;;6.87;4.40;;;23.10;98.60;;;;;;4993360;28;20741;-75
2022/08/24 06:11:59;;;;;;;9.63;4.90;;;23.10;98.30;;;;;;4993307;28;20214;-71
2022/08/24 06:14:27;;;;;;;10.33;4.40;;;23.20;98.30;;;;;;4991284;28;20211;-73
2022/08/24 06:16:54;;;;;;;9.83;4.07;;;23.30;98.00;;;;;;4992309;28;20208;-73
2022/08/24 06:19:22;;;;;;;10.60;4.53;;;23.30;98.00;;;;;;4993279;28;20646;-72
2022/08/24 06:21:51;;;;;;;11.13;4.60;;;23.40;97.90;;;;;;4992957;28;20211;-74
2022/08/24 06:24:18;;;;;;;10.63;4.60;;;23.50;98.80;;;;;;4992632;28;20296;-71
2022/08/24 06:27:19;;;;;;;32.50;6.23;;;23.50;98.70;;;;;;4991968;28;20219;-75
2022/08/24 06:29:48;;;;;;;14.93;4.00;;;23.60;98.40;;;;;;4993384;28;20275;-71
2022/08/24 06:32:15;;;;;;;28.30;5.43;;;23.70;98.40;;;;;;4991870;28;20250;-71
2022/08/24 06:34:42;;;;;;;10.13;4.53;;;23.80;97.70;;;;;;4993408;28;20297;-70
2022/08/24 06:37:09;;;;;;;9.53;4.50;;;23.80;97.50;;;;;;4995490;28;20206;-70
2022/08/24 06:39:36;;;;;;;10.60;5.60;;;23.80;97.90;;;;;;4993068;28;20333;-69
2022/08/24 06:42:03;;;;;;;12.37;5.67;;;23.80;97.90;;;;;;4992938;28;20292;-71
2022/08/24 06:44:30;;;;;;;8.10;4.53;;;23.90;98.20;;;;;;4993138;28;20312;-71
2022/08/24 06:46:59;;;;;;;9.73;5.03;;;23.90;98.10;;;;;;4992494;28;20230;-70
2022/08/24 06:49:26;;;;;;;11.90;4.73;;;23.90;98.00;;;;;;4991735;28;20214;-72
2022/08/24 06:51:52;;;;;;;12.87;4.77;;;24.10;98.10;;;;;;4992888;28;20297;-71
2022/08/24 06:54:20;;;;;;;13.17;4.33;;;24.10;98.50;;;;;;4990566;28;20567;-71
2022/08/24 06:56:47;;;;;;;10.77;4.40;;;24.10;98.20;;;;;;4992635;28;20200;-72
2022/08/24 06:59:14;;;;;;;9.23;4.37;;;24.20;97.80;;;;;;4992467;28;20236;-70
2022/08/24 07:01:41;;;;;;;13.47;4.43;;;24.20;98.20;;;;;;4993185;28;20296;-72
2022/08/24 07:04:09;;;;;;;8.50;4.23;;;24.30;98.10;;;;;;4991232;28;20210;-72
2022/08/24 07:06:37;;;;;;;10.93;5.87;;;24.30;98.30;;;;;;4995130;28;20315;-71
2022/08/24 07:09:04;;;;;;;11.27;4.57;;;24.40;98.40;;;;;;4996837;28;20673;-71
2022/08/24 07:11:33;;;;;;;17.93;5.60;;;24.40;98.40;;;;;;4997319;28;20750;-71
2022/08/24 07:14:00;;;;;;;12.17;5.50;;;24.40;98.90;;;;;;4993573;28;20232;-71
2022/08/24 07:16:27;;;;;;;11.07;4.90;;;24.50;98.90;;;;;;4996028;28;20293;-70
2022/08/24 07:18:54;;;;;;;10.20;4.17;;;24.50;98.50;;;;;;4996256;28;20247;-73
2022/08/24 07:21:23;;;;;;;19.37;4.97;;;24.50;98.60;;;;;;4995639;28;20244;-71
2022/08/24 07:23:54;;;;;;;34.93;5.97;;;24.60;99.00;;;;;;4994481;28;20293;-70
2022/08/24 07:26:23;;;;;;;15.80;5.27;;;24.70;98.50;;;;;;4995697;28;20582;-71
2022/08/24 07:28:50;;;;;;;11.23;5.00;;;24.80;98.60;;;;;;4995639;28;20305;-71
2022/08/24 07:31:18;;;;;;;10.57;5.10;;;24.80;98.30;;;;;;4996202;28;20210;-74
2022/08/24 07:33:45;;;;;;;9.20;4.13;;;24.90;98.20;;;;;;4987217;28;20573;-71
2022/08/24 07:36:13;;;;;;;12.17;4.77;;;24.90;97.90;;;;;;4976905;28;20236;-71
2022/08/24 07:38:42;;;;;;;10.40;4.27;;;24.90;98.10;;;;;;4976032;28;20851;-72
2022/08/24 07:41:09;;;;;;;11.63;4.67;;;25.00;98.20;;;;;;4986421;28;20199;-71
2022/08/24 07:43:36;;;;;;;18.00;5.20;;;25.00;98.10;;;;;;4993643;28;20741;-70
2022/08/24 07:46:05;;;;;;;12.67;5.17;;;25.10;98.10;;;;;;4994645;28;20211;-72
2022/08/24 07:48:33;;;;;;;13.20;5.97;;;25.10;98.20;;;;;;4994677;28;20208;-72
2022/08/24 07:51:07;;;;;;;16.23;4.57;;;25.20;98.00;;;;;;4987925;28;20244;-73
2022/08/24 07:53:34;;;;;;;38.43;7.07;;;25.20;98.40;;;;;;4994874;28;20234;-72
2022/08/24 07:56:02;;;;;;;24.60;6.90;;;25.30;98.40;;;;;;4991729;28;20269;-72
2022/08/24 07:58:30;;;;;;;17.58;5.05;;;25.40;98.40;;;;;;4994551;28;20247;-72
2022/08/24 08:00:57;;;;;;;25.63;7.17;;;25.50;98.50;;;;;;4991249;28;20284;-71
2022/08/24 08:03:26;;;;;;;11.93;4.80;;;25.60;98.00;;;;;;5013369;28;20211;-71
2022/08/24 08:05:56;;;;;;;14.60;4.78;;;25.60;97.50;;;;;;5007265;28;20741;-72
2022/08/24 08:08:23;;;;;;;21.67;5.37;;;25.70;97.50;;;;;;4993081;28;20216;-73
2022/08/24 08:10:51;;;;;;;21.53;5.20;;;25.70;97.20;;;;;;5014683;28;20213;-73
2022/08/24 08:13:19;;;;;;;21.45;4.97;;;25.80;97.10;;;;;;4999743;28;20254;-71
2022/08/24 08:15:47;;;;;;;32.13;6.05;;;25.90;97.40;;;;;;4995520;28;20304;-73
2022/08/24 08:18:15;;;;;;;18.10;5.20;;;25.90;96.50;;;;;;4995155;28;20239;-70
2022/08/24 08:20:43;;;;;;;22.05;7.63;;;26.00;96.20;;;;;;4996420;28;20267;-74
2022/08/24 08:25:57;;;;;;;21.63;5.33;;;26.00;96.10;;;;;;5013344;28;20280;-73
2022/08/24 08:28:26;;;;;;;24.55;5.82;;;26.10;96.00;;;;;;4980091;28;20242;-70
2022/08/24 08:30:53;;;;;;;23.50;5.47;;;26.20;96.10;;;;;;4994481;28;20256;-72
2022/08/24 08:33:20;;;;;;;17.77;5.15;;;26.20;95.50;;;;;;4995019;28;20207;-74
2022/08/24 08:35:49;;;;;;;17.48;4.85;;;26.30;95.90;;;;;;4995286;28;20215;-72
2022/08/24 08:38:16;;;;;;;19.98;5.07;;;26.40;96.80;;;;;;4995236;28;20297;-72
2022/08/24 08:40:57;;;;;;;19.58;4.82;;;26.50;96.00;;;;;;4994737;28;20279;-71
2022/08/24 08:43:40;;;;;;;24.70;5.18;;;26.60;95.40;;;;;;4995033;28;20208;-70
2022/08/24 08:46:23;;;;;;;14.80;5.18;;;26.60;94.50;;;;;;4984740;28;20287;-70
2022/08/24 08:49:20;;;;;;;26.20;5.85;;;26.70;94.70;;;;;;4993182;28;20621;-72
2022/08/24 08:52:26;;;;;;;15.10;4.68;;;26.80;95.60;;;;;;4993419;28;20652;-71
2022/08/24 08:55:04;;;;;;;17.73;5.03;;;26.90;94.90;;;;;;4992937;28;20208;-71
2022/08/24 08:57:44;;;;;;;29.17;5.03;;;27.00;94.80;;;;;;4993348;28;20277;-73
2022/08/24 09:00:16;;;;;;;17.77;5.05;;;27.20;94.40;;;;;;4993128;28;20298;-73
2022/08/24 09:03:16;;;;;;;10.85;4.35;;;27.30;94.20;;;;;;4985511;28;20305;-72
2022/08/24 09:06:21;;;;;;;16.52;4.07;;;27.40;93.70;;;;;;5004269;28;20251;-71
2022/08/24 09:09:19;;;;;;;19.90;4.25;;;27.50;93.00;;;;;;4994682;28;20767;-72
2022/08/24 09:12:00;;;;;;;12.80;4.25;;;27.60;92.80;;;;;;4984188;28;20261;-70
2022/08/24 09:14:48;;;;;;;15.55;4.25;;;27.70;93.00;;;;;;4995021;28;20639;-70
2022/08/24 09:17:30;;;;;;;11.43;4.40;;;27.70;92.50;;;;;;5002027;28;20272;-70
2022/08/24 09:20:11;;;;;;;9.90;3.60;;;27.80;91.70;;;;;;4994414;28;20230;-72
2022/08/24 09:22:42;;;;;;;12.75;3.80;;;27.80;91.80;;;;;;4993899;28;20292;-71
2022/08/24 09:25:21;;;;;;;9.15;3.78;;;27.80;91.80;;;;;;4994170;28;20188;-71
2022/08/24 09:28:06;;;;;;;13.32;4.03;;;28.00;91.80;;;;;;5001344;28;20225;-72
2022/08/24 09:30:51;;;;;;;9.90;3.97;;;28.10;92.10;;;;;;4993689;28;20277;-70
2022/08/24 09:33:22;;;;;;;11.18;3.88;;;28.20;92.10;;;;;;4974410;28;20197;-70
2022/08/24 09:36:07;;;;;;;11.13;3.55;;;28.30;92.20;;;;;;4973899;28;20290;-71
2022/08/24 09:38:50;;;;;;;9.73;3.55;;;28.30;91.70;;;;;;4986169;28;20244;-71
2022/08/24 09:41:44;;;;;;;16.88;4.65;;;28.40;92.10;;;;;;4993533;28;20196;-71
2022/08/24 09:44:46;;;;;;;21.13;4.15;;;28.50;92.20;;;;;;4993959;28;20298;-70
2022/08/24 09:47:26;;;;;;;12.30;3.25;;;28.60;91.60;;;;;;4985420;28;20673;-72
2022/08/24 09:50:25;;;;;;;12.65;3.92;;;28.60;91.80;;;;;;4988725;28;20236;-71
2022/08/24 09:53:22;;;;;;;9.20;3.35;;;28.80;90.20;;;;;;4992252;28;20212;-68
2022/08/24 09:56:10;;;;;;;29.15;4.30;;;28.80;90.40;;;;;;4993465;28;20210;-71
2022/08/24 09:58:49;;;;;;;13.50;3.47;;;28.90;89.90;;;;;;4993380;28;20614;-69
2022/08/24 10:01:25;;;;;;;13.43;4.00;;;28.90;89.70;;;;;;4993685;28;20217;-70
2022/08/24 10:04:07;;;;;;;19.58;3.67;;;28.90;89.20;;;;;;5007319;28;20216;-70
2022/08/24 10:06:45;;;;;;;8.10;3.20;;;29.00;89.10;;;;;;4996928;28;20260;-71
2022/08/24 10:09:39;;;;;;;12.15;3.90;;;29.10;89.40;;;;;;4993246;28;20286;-70
2022/08/24 10:12:18;;;;;;;11.65;3.70;;;29.20;90.90;;;;;;4992191;28;20588;-71
2022/08/24 10:14:55;;;;;;;12.20;3.63;;;29.20;90.20;;;;;;4993165;28;20422;-70
2022/08/24 10:17:34;;;;;;;7.53;3.10;;;29.30;89.00;;;;;;4992849;28;20202;-69
2022/08/24 10:20:10;;;;;;;9.50;3.00;;;29.40;89.80;;;;;;4992235;28;20206;-68
2022/08/24 10:23:07;;;;;;;13.23;4.03;;;29.40;88.80;;;;;;4988115;28;20234;-70
2022/08/24 10:25:40;;;;;;;9.00;3.20;;;29.50;88.60;;;;;;4992914;28;20186;-69
2022/08/24 10:28:36;;;;;;;12.30;3.25;;;29.50;88.40;;;;;;4987288;28;20242;-71
2022/08/24 10:31:06;;;;;;;14.15;3.85;;;29.50;90.10;;;;;;4983521;28;20613;-69
2022/08/24 10:33:38;;;;;;;15.80;3.33;;;29.60;90.00;;;;;;5003224;28;20249;-69
2022/08/24 10:36:26;;;;;;;11.18;3.47;;;29.60;89.90;;;;;;4992877;28;20250;-69
2022/08/24 10:43:32;;;;;;;9.50;3.53;;;29.80;88.60;;;;;;4996150;28;20209;-72
2022/08/24 10:45:28;;;;;;;11.52;3.53;;;29.80;90.50;;;;;;4986716;28;20215;-68
2022/08/24 10:48:11;;;;;;;11.32;3.10;;;29.90;89.60;;;;;;5006674;28;20214;-69
2022/08/24 10:50:53;;;;;;;10.32;3.55;;;29.80;88.40;;;;;;4996850;28;20194;-74
2022/08/24 10:53:26;;;;;;;8.82;3.30;;;29.80;89.40;;;;;;4994150;28;20233;-70
2022/08/24 10:56:12;;;;;;;9.50;3.72;;;29.80;90.00;;;;;;4996046;28;20230;-69
2022/08/24 10:58:49;;;;;;;16.15;3.97;;;29.90;89.20;;;;;;4995030;28;20297;-69
2022/08/24 11:01:28;;;;;;;16.02;3.75;;;29.90;89.10;;;;;;4989425;28;20207;-69
2022/08/24 11:04:00;;;;;;;16.25;3.55;;;29.90;88.50;;;;;;4995498;28;20201;-69
2022/08/24 11:06:31;;;;;;;15.07;3.90;;;29.90;88.10;;;;;;4996110;28;20202;-72
2022/08/24 11:09:05;;;;;;;73.10;6.82;;;29.90;88.10;;;;;;4996455;28;20223;-69
2022/08/24 11:11:36;;;;;;;11.38;3.10;;;29.90;88.60;;;;;;4996172;28;20482;-68
2022/08/24 11:14:06;;;;;;;11.15;3.42;;;30.00;88.80;;;;;;4996275;28;20298;-68
2022/08/24 11:16:36;;;;;;;14.52;3.53;;;30.00;88.50;;;;;;4996536;28;20227;-69
2022/08/24 11:19:08;;;;;;;23.25;3.75;;;30.00;89.80;;;;;;4996138;28;20290;-68
2022/08/24 11:21:42;;;;;;;10.00;3.30;;;30.10;88.40;;;;;;4996394;28;20215;-69
2022/08/24 11:24:13;;;;;;;12.65;3.30;;;30.10;87.90;;;;;;4996153;28;20209;-69
2022/08/24 11:26:56;;;;;;;14.57;3.08;;;30.10;87.00;;;;;;4996226;28;20282;-68
2022/08/24 11:29:30;;;;;;;28.45;4.80;;;30.10;87.60;;;;;;4996016;28;20223;-68
2022/08/24 11:31:58;;;;;;;10.45;3.13;;;30.10;88.10;;;;;;4996009;28;20202;-69
2022/08/24 11:34:35;;;;;;;9.32;2.88;;;30.20;88.00;;;;;;4995314;28;20207;-68
2022/08/24 11:37:04;;;;;;;8.85;3.33;;;30.20;88.00;;;;;;4996525;28;20195;-67
2022/08/24 11:39:34;;;;;;;15.60;3.50;;;30.20;88.90;;;;;;4995810;28;20273;-74
2022/08/24 11:42:15;;;;;;;23.08;4.35;;;30.30;89.20;;;;;;5008430;28;20254;-76
2022/08/24 11:44:48;;;;;;;11.52;4.30;;;30.40;87.60;;;;;;4997217;28;20223;-76
2022/08/24 11:47:44;;;;;;;24.02;3.83;;;30.40;88.40;;;;;;4996797;28;20555;-73
2022/08/24 11:50:25;;;;;;;15.13;3.70;;;30.50;87.90;;;;;;4996681;28;20284;-74
2022/08/24 11:53:00;;;;;;;11.05;3.20;;;30.50;86.70;;;;;;4995929;28;20233;-74
2022/08/24 11:55:35;;;;;;;8.95;3.38;;;30.50;87.20;;;;;;4996846;28;20266;-74
2022/08/24 11:58:11;;;;;;;11.27;3.60;;;30.50;88.90;;;;;;4996809;28;20561;-73
2022/08/24 12:00:46;;;;;;;11.15;3.45;;;30.50;87.20;;;;;;5015571;28;20312;-74
2022/08/24 12:03:29;;;;;;;16.52;3.60;;;30.50;88.10;;;;;;5017712;28;20201;-76
2022/08/24 12:06:00;;;;;;;10.43;3.10;;;30.50;88.80;;;;;;5019479;28;20278;-74
2022/08/24 12:08:34;;;;;;;10.00;3.20;;;30.60;88.70;;;;;;4998082;28;20242;-74
2022/08/24 12:11:12;;;;;;;8.10;3.30;;;30.60;87.10;;;;;;4997101;28;20195;-73
2022/08/24 12:13:48;;;;;;;10.55;3.22;;;30.60;87.00;;;;;;4996929;28;20684;-73
2022/08/24 12:31:06;;;;;;;29.63;5.03;;;30.60;86.50;;;;;;5037792;28;20605;-74
2022/08/24 12:33:38;;;;;;;11.77;3.30;;;30.80;86.40;;;;;;5045590;28;20221;-75
2022/08/24 12:36:16;;;;;;;12.48;3.70;;;30.80;86.90;;;;;;5052470;27;20198;-74
2022/08/24 12:38:48;;;;;;;17.20;3.90;;;30.80;86.10;;;;;;5056545;28;20742;-73
2022/08/24 12:41:20;;;;;;;11.95;3.53;;;30.80;86.30;;;;;;5093595;28;20193;-76
2022/08/24 12:43:51;;;;;;;9.77;3.10;;;30.80;87.30;;;;;;5045538;28;20281;-75
2022/08/24 12:46:23;;;;;;;13.65;4.15;;;30.80;85.80;;;;;;5032767;28;20250;-74
2022/08/24 12:48:55;;;;;;;19.75;3.88;;;30.80;83.70;;;;;;5026457;28;20273;-74
2022/08/24 12:51:26;;;;;;;36.45;5.88;;;30.80;82.80;;;;;;5026972;28;20248;-74
2022/08/24 12:54:31;;;;;;;37.00;4.95;;;30.80;82.50;;;;;;5026029;28;20281;-74
2022/08/24 12:57:15;;;;;;;19.17;3.85;;;30.80;82.10;;;;;;5026329;28;20277;-73
2022/08/24 12:59:47;;;;;;;12.95;3.58;;;30.80;83.00;;;;;;5025743;28;20210;-73
2022/08/24 13:02:32;;;;;;;11.15;3.20;;;30.80;82.10;;;;;;5025677;28;20293;-74
2022/08/24 13:05:09;;;;;;;18.15;3.78;;;30.80;82.30;;;;;;5029268;28;20363;-74
2022/08/24 13:07:41;;;;;;;13.20;3.05;;;30.80;82.20;;;;;;5024571;28;20206;-73
2022/08/24 13:10:15;;;;;;;18.27;3.15;;;30.80;82.70;;;;;;5023401;28;20298;-76
2022/08/24 13:13:09;;;;;;;14.15;3.25;;;30.80;81.30;;;;;;5005263;28;20281;-72
2022/08/24 13:16:01;;;;;;;36.03;4.00;;;30.80;82.90;;;;;;5015679;28;20205;-74
2022/08/24 13:19:11;;;;;;;31.48;3.85;;;30.80;81.40;;;;;;5025353;28;20687;-73
2022/08/24 13:45:07;;;;;;;16.42;3.28;;;30.80;80.90;;;;;;5130521;27;20556;-73
2022/08/24 13:47:53;;;;;;;14.50;3.13;;;31.00;81.20;;;;;;5130870;27;20233;-75
2022/08/24 13:50:38;;;;;;;12.13;5.50;;;30.90;81.70;;;;;;5130311;28;20269;-72
2022/08/24 13:53:28;;;;;;;8.20;3.33;;;30.90;83.90;;;;;;5130210;28;20221;-73